sensor_id;sensor_type;location;lat;lon;timestamp;P1;durP1;ratioP1;P2;durP2;ratioP2
71383;SDS011;61466;52.166;5.004;2022-11-15T00:00:32;32.75;;;12.35;;
71383;SDS011;61466;52.166;5.004;2022-11-15T00:02:58;31.33;;;12.50;;
71383;SDS011;61466;52.166;5.004;2022-11-15T00:05:23;38.10;;;13.95;;
71383;SDS011;61466;52.166;5.004;2022-11-15T00:07:49;36.13;;;13.43;;
71383;SDS011;61466;52.166;5.004;2022-11-15T00:10:15;30.10;;;11.23;;
71383;SDS011;61466;52.166;5.004;2022-11-15T00:12:40;30.80;;;13.32;;
71383;SDS011;61466;52.166;5.004;2022-11-15T00:15:06;36.30;;;11.75;;
71383;SDS011;61466;52.166;5.004;2022-11-15T00:17:32;35.10;;;12.77;;
71383;SDS011;61466;52.166;5.004;2022-11-15T00:19:58;39.95;;;14.73;;
71383;SDS011;61466;52.166;5.004;2022-11-15T00:22:23;35.40;;;13.57;;
71383;SDS011;61466;52.166;5.004;2022-11-15T00:24:49;33.13;;;12.65;;
71383;SDS011;61466;52.166;5.004;2022-11-15T00:27:15;33.28;;;12.80;;
71383;SDS011;61466;52.166;5.004;2022-11-15T00:29:41;37.08;;;14.52;;
71383;SDS011;61466;52.166;5.004;2022-11-15T00:32:11;31.88;;;11.52;;
71383;SDS011;61466;52.166;5.004;2022-11-15T00:34:36;32.30;;;12.20;;
71383;SDS011;61466;52.166;5.004;2022-11-15T00:37:02;39.72;;;14.57;;
71383;SDS011;61466;52.166;5.004;2022-11-15T00:39:27;30.80;;;11.80;;
71383;SDS011;61466;52.166;5.004;2022-11-15T00:41:53;36.13;;;12.98;;
71383;SDS011;61466;52.166;5.004;2022-11-15T00:44:19;30.73;;;12.60;;
71383;SDS011;61466;52.166;5.004;2022-11-15T00:46:44;34.58;;;13.70;;
71383;SDS011;61466;52.166;5.004;2022-11-15T00:49:10;28.67;;;13.10;;
71383;SDS011;61466;52.166;5.004;2022-11-15T00:51:36;38.35;;;12.75;;
71383;SDS011;61466;52.166;5.004;2022-11-15T00:54:01;32.20;;;12.55;;
71383;SDS011;61466;52.166;5.004;2022-11-15T00:56:27;37.92;;;13.60;;
71383;SDS011;61466;52.166;5.004;2022-11-15T00:58:52;28.88;;;12.73;;
71383;SDS011;61466;52.166;5.004;2022-11-15T01:01:18;35.47;;;14.13;;
71383;SDS011;61466;52.166;5.004;2022-11-15T01:03:44;35.47;;;12.52;;
71383;SDS011;61466;52.166;5.004;2022-11-15T01:06:09;33.50;;;13.07;;
71383;SDS011;61466;52.166;5.004;2022-11-15T01:08:38;34.47;;;13.85;;
71383;SDS011;61466;52.166;5.004;2022-11-15T01:11:07;35.53;;;12.48;;
71383;SDS011;61466;52.166;5.004;2022-11-15T01:13:35;33.85;;;12.88;;
71383;SDS011;61466;52.166;5.004;2022-11-15T01:16:09;32.92;;;12.90;;
71383;SDS011;61466;52.166;5.004;2022-11-15T01:18:40;38.67;;;12.52;;
71383;SDS011;61466;52.166;5.004;2022-11-15T01:21:07;40.00;;;12.95;;
71383;SDS011;61466;52.166;5.004;2022-11-15T01:23:34;34.50;;;11.70;;
71383;SDS011;61466;52.166;5.004;2022-11-15T01:26:01;39.50;;;13.02;;
71383;SDS011;61466;52.166;5.004;2022-11-15T01:28:31;39.10;;;13.77;;
71383;SDS011;61466;52.166;5.004;2022-11-15T01:30:59;34.17;;;13.63;;
71383;SDS011;61466;52.166;5.004;2022-11-15T01:33:25;34.38;;;13.32;;
71383;SDS011;61466;52.166;5.004;2022-11-15T01:35:51;32.50;;;13.07;;
71383;SDS011;61466;52.166;5.004;2022-11-15T01:38:17;32.15;;;12.57;;
71383;SDS011;61466;52.166;5.004;2022-11-15T01:40:43;34.15;;;12.65;;
71383;SDS011;61466;52.166;5.004;2022-11-15T01:43:30;42.22;;;16.27;;
71383;SDS011;61466;52.166;5.004;2022-11-15T01:49:11;37.63;;;12.35;;
71383;SDS011;61466;52.166;5.004;2022-11-15T01:51:39;29.90;;;13.32;;
71383;SDS011;61466;52.166;5.004;2022-11-15T01:54:06;33.85;;;12.73;;
71383;SDS011;61466;52.166;5.004;2022-11-15T01:56:38;35.17;;;14.63;;
71383;SDS011;61466;52.166;5.004;2022-11-15T01:59:10;34.15;;;13.70;;
71383;SDS011;61466;52.166;5.004;2022-11-15T02:01:36;43.78;;;13.98;;
71383;SDS011;61466;52.166;5.004;2022-11-15T02:04:05;38.15;;;13.88;;
71383;SDS011;61466;52.166;5.004;2022-11-15T02:06:36;42.65;;;15.65;;
71383;SDS011;61466;52.166;5.004;2022-11-15T02:09:03;36.35;;;14.25;;
71383;SDS011;61466;52.166;5.004;2022-11-15T02:11:29;39.90;;;14.77;;
71383;SDS011;61466;52.166;5.004;2022-11-15T02:13:55;37.85;;;15.02;;
71383;SDS011;61466;52.166;5.004;2022-11-15T02:25:13;36.85;;;14.43;;
71383;SDS011;61466;52.166;5.004;2022-11-15T02:33:33;42.55;;;15.50;;
71383;SDS011;61466;52.166;5.004;2022-11-15T02:36:10;36.42;;;15.40;;
71383;SDS011;61466;52.166;5.004;2022-11-15T02:42:08;36.83;;;13.90;;
71383;SDS011;61466;52.166;5.004;2022-11-15T02:44:58;39.80;;;14.40;;
71383;SDS011;61466;52.166;5.004;2022-11-15T02:47:30;42.85;;;15.73;;
71383;SDS011;61466;52.166;5.004;2022-11-15T02:50:07;42.00;;;16.23;;
71383;SDS011;61466;52.166;5.004;2022-11-15T02:52:36;41.03;;;16.58;;
71383;SDS011;61466;52.166;5.004;2022-11-15T02:55:02;36.72;;;15.48;;
71383;SDS011;61466;52.166;5.004;2022-11-15T02:57:31;36.58;;;16.38;;
71383;SDS011;61466;52.166;5.004;2022-11-15T03:00:12;43.42;;;15.55;;
71383;SDS011;61466;52.166;5.004;2022-11-15T03:02:52;41.25;;;15.50;;
71383;SDS011;61466;52.166;5.004;2022-11-15T03:05:44;41.75;;;15.38;;
71383;SDS011;61466;52.166;5.004;2022-11-15T03:11:02;38.50;;;15.77;;
71383;SDS011;61466;52.166;5.004;2022-11-15T03:19:12;40.92;;;15.85;;
71383;SDS011;61466;52.166;5.004;2022-11-15T03:21:43;45.67;;;17.55;;
71383;SDS011;61466;52.166;5.004;2022-11-15T03:24:10;33.55;;;14.80;;
71383;SDS011;61466;52.166;5.004;2022-11-15T03:26:38;42.20;;;16.17;;
71383;SDS011;61466;52.166;5.004;2022-11-15T03:29:13;41.67;;;16.33;;
71383;SDS011;61466;52.166;5.004;2022-11-15T03:31:44;41.55;;;15.13;;
71383;SDS011;61466;52.166;5.004;2022-11-15T03:34:22;38.38;;;17.33;;
71383;SDS011;61466;52.166;5.004;2022-11-15T03:36:55;39.50;;;15.75;;
71383;SDS011;61466;52.166;5.004;2022-11-15T03:39:21;35.53;;;15.60;;
71383;SDS011;61466;52.166;5.004;2022-11-15T03:44:47;42.22;;;17.00;;
71383;SDS011;61466;52.166;5.004;2022-11-15T03:47:40;45.13;;;15.65;;
71383;SDS011;61466;52.166;5.004;2022-11-15T03:50:13;32.33;;;14.27;;
71383;SDS011;61466;52.166;5.004;2022-11-15T03:52:41;35.65;;;15.20;;
71383;SDS011;61466;52.166;5.004;2022-11-15T03:55:11;32.58;;;14.48;;
71383;SDS011;61466;52.166;5.004;2022-11-15T03:57:40;32.58;;;14.50;;
71383;SDS011;61466;52.166;5.004;2022-11-15T04:00:07;33.75;;;15.23;;
71383;SDS011;61466;52.166;5.004;2022-11-15T04:02:33;34.72;;;14.20;;
71383;SDS011;61466;52.166;5.004;2022-11-15T04:04:59;35.53;;;14.57;;
71383;SDS011;61466;52.166;5.004;2022-11-15T04:07:24;35.33;;;14.02;;
71383;SDS011;61466;52.166;5.004;2022-11-15T04:09:50;34.92;;;15.07;;
71383;SDS011;61466;52.166;5.004;2022-11-15T04:12:30;29.20;;;13.60;;
71383;SDS011;61466;52.166;5.004;2022-11-15T04:15:01;34.50;;;13.05;;
71383;SDS011;61466;52.166;5.004;2022-11-15T04:17:32;37.17;;;13.90;;
71383;SDS011;61466;52.166;5.004;2022-11-15T04:19:57;29.48;;;14.00;;
71383;SDS011;61466;52.166;5.004;2022-11-15T04:25:26;28.83;;;12.98;;
71383;SDS011;61466;52.166;5.004;2022-11-15T04:27:52;32.97;;;13.68;;
71383;SDS011;61466;52.166;5.004;2022-11-15T04:30:17;31.15;;;14.13;;
71383;SDS011;61466;52.166;5.004;2022-11-15T04:32:42;27.35;;;13.13;;
71383;SDS011;61466;52.166;5.004;2022-11-15T04:35:08;30.55;;;13.98;;
71383;SDS011;61466;52.166;5.004;2022-11-15T04:37:34;33.58;;;13.95;;
71383;SDS011;61466;52.166;5.004;2022-11-15T04:39:59;35.20;;;14.90;;
71383;SDS011;61466;52.166;5.004;2022-11-15T04:42:26;34.45;;;15.10;;
71383;SDS011;61466;52.166;5.004;2022-11-15T04:44:51;30.38;;;14.48;;
71383;SDS011;61466;52.166;5.004;2022-11-15T04:47:17;28.25;;;13.25;;
71383;SDS011;61466;52.166;5.004;2022-11-15T04:49:44;27.85;;;12.27;;
71383;SDS011;61466;52.166;5.004;2022-11-15T04:52:09;29.92;;;12.93;;
71383;SDS011;61466;52.166;5.004;2022-11-15T04:54:35;29.17;;;13.38;;
71383;SDS011;61466;52.166;5.004;2022-11-15T04:57:01;27.60;;;12.65;;
71383;SDS011;61466;52.166;5.004;2022-11-15T04:59:27;29.63;;;14.05;;
71383;SDS011;61466;52.166;5.004;2022-11-15T05:01:53;29.02;;;12.90;;
71383;SDS011;61466;52.166;5.004;2022-11-15T05:04:19;29.90;;;14.15;;
71383;SDS011;61466;52.166;5.004;2022-11-15T05:06:49;25.08;;;12.10;;
71383;SDS011;61466;52.166;5.004;2022-11-15T05:09:17;33.00;;;13.88;;
71383;SDS011;61466;52.166;5.004;2022-11-15T05:11:43;33.75;;;13.63;;
71383;SDS011;61466;52.166;5.004;2022-11-15T05:14:08;35.33;;;15.05;;
71383;SDS011;61466;52.166;5.004;2022-11-15T05:16:34;24.13;;;12.93;;
71383;SDS011;61466;52.166;5.004;2022-11-15T05:19:01;27.65;;;12.77;;
71383;SDS011;61466;52.166;5.004;2022-11-15T05:21:27;25.20;;;11.98;;
71383;SDS011;61466;52.166;5.004;2022-11-15T05:23:53;33.58;;;13.50;;
71383;SDS011;61466;52.166;5.004;2022-11-15T05:26:19;23.73;;;11.70;;
71383;SDS011;61466;52.166;5.004;2022-11-15T05:28:44;31.77;;;13.65;;
71383;SDS011;61466;52.166;5.004;2022-11-15T05:31:11;22.52;;;10.52;;
71383;SDS011;61466;52.166;5.004;2022-11-15T05:33:38;19.85;;;12.10;;
71383;SDS011;61466;52.166;5.004;2022-11-15T05:38:57;24.73;;;12.05;;
71383;SDS011;61466;52.166;5.004;2022-11-15T05:41:27;21.08;;;10.65;;
71383;SDS011;61466;52.166;5.004;2022-11-15T05:43:59;24.17;;;12.63;;
71383;SDS011;61466;52.166;5.004;2022-11-15T05:46:26;24.55;;;11.80;;
71383;SDS011;61466;52.166;5.004;2022-11-15T05:48:53;23.63;;;11.18;;
71383;SDS011;61466;52.166;5.004;2022-11-15T05:51:20;22.10;;;11.38;;
71383;SDS011;61466;52.166;5.004;2022-11-15T05:53:47;25.05;;;11.68;;
71383;SDS011;61466;52.166;5.004;2022-11-15T05:56:14;22.50;;;11.85;;
71383;SDS011;61466;52.166;5.004;2022-11-15T05:58:40;23.85;;;10.90;;
71383;SDS011;61466;52.166;5.004;2022-11-15T06:01:07;22.15;;;11.55;;
71383;SDS011;61466;52.166;5.004;2022-11-15T06:03:33;25.23;;;11.57;;
71383;SDS011;61466;52.166;5.004;2022-11-15T06:05:59;22.70;;;10.93;;
71383;SDS011;61466;52.166;5.004;2022-11-15T06:08:25;24.88;;;12.18;;
71383;SDS011;61466;52.166;5.004;2022-11-15T06:10:50;20.85;;;11.90;;
71383;SDS011;61466;52.166;5.004;2022-11-15T06:13:16;22.38;;;11.75;;
71383;SDS011;61466;52.166;5.004;2022-11-15T06:15:41;26.65;;;12.63;;
71383;SDS011;61466;52.166;5.004;2022-11-15T06:18:07;22.08;;;11.43;;
71383;SDS011;61466;52.166;5.004;2022-11-15T06:20:33;23.90;;;11.73;;
71383;SDS011;61466;52.166;5.004;2022-11-15T06:23:00;29.80;;;12.52;;
71383;SDS011;61466;52.166;5.004;2022-11-15T06:25:27;27.73;;;12.15;;
71383;SDS011;61466;52.166;5.004;2022-11-15T06:27:55;26.02;;;11.20;;
71383;SDS011;61466;52.166;5.004;2022-11-15T06:30:22;25.70;;;11.10;;
71383;SDS011;61466;52.166;5.004;2022-11-15T06:32:48;21.85;;;10.82;;
71383;SDS011;61466;52.166;5.004;2022-11-15T06:35:14;22.92;;;12.15;;
71383;SDS011;61466;52.166;5.004;2022-11-15T06:37:40;24.77;;;10.70;;
71383;SDS011;61466;52.166;5.004;2022-11-15T06:40:07;28.60;;;12.32;;
71383;SDS011;61466;52.166;5.004;2022-11-15T06:42:33;23.77;;;11.38;;
71383;SDS011;61466;52.166;5.004;2022-11-15T06:44:58;22.70;;;11.15;;
71383;SDS011;61466;52.166;5.004;2022-11-15T06:47:24;27.38;;;11.50;;
71383;SDS011;61466;52.166;5.004;2022-11-15T06:49:49;23.13;;;11.05;;
71383;SDS011;61466;52.166;5.004;2022-11-15T06:52:15;23.65;;;10.98;;
71383;SDS011;61466;52.166;5.004;2022-11-15T06:54:43;24.30;;;11.43;;
71383;SDS011;61466;52.166;5.004;2022-11-15T06:57:09;25.48;;;11.32;;
71383;SDS011;61466;52.166;5.004;2022-11-15T06:59:34;24.00;;;12.10;;
71383;SDS011;61466;52.166;5.004;2022-11-15T07:02:00;22.48;;;10.85;;
71383;SDS011;61466;52.166;5.004;2022-11-15T07:04:25;21.20;;;10.38;;
71383;SDS011;61466;52.166;5.004;2022-11-15T07:06:51;22.73;;;11.35;;
71383;SDS011;61466;52.166;5.004;2022-11-15T07:09:17;21.13;;;10.48;;
71383;SDS011;61466;52.166;5.004;2022-11-15T07:11:42;22.65;;;10.43;;
71383;SDS011;61466;52.166;5.004;2022-11-15T07:14:09;21.85;;;10.23;;
71383;SDS011;61466;52.166;5.004;2022-11-15T07:16:35;23.17;;;11.63;;
71383;SDS011;61466;52.166;5.004;2022-11-15T07:19:01;17.08;;;9.43;;
71383;SDS011;61466;52.166;5.004;2022-11-15T07:21:27;22.63;;;10.48;;
71383;SDS011;61466;52.166;5.004;2022-11-15T07:23:53;19.92;;;10.48;;
71383;SDS011;61466;52.166;5.004;2022-11-15T07:26:19;20.13;;;10.20;;
71383;SDS011;61466;52.166;5.004;2022-11-15T07:28:46;25.23;;;9.98;;
71383;SDS011;61466;52.166;5.004;2022-11-15T07:31:11;22.83;;;11.30;;
71383;SDS011;61466;52.166;5.004;2022-11-15T07:33:37;20.60;;;10.55;;
71383;SDS011;61466;52.166;5.004;2022-11-15T07:36:03;22.77;;;10.93;;
71383;SDS011;61466;52.166;5.004;2022-11-15T07:38:31;28.23;;;10.02;;
71383;SDS011;61466;52.166;5.004;2022-11-15T07:41:00;19.15;;;9.93;;
71383;SDS011;61466;52.166;5.004;2022-11-15T07:43:27;21.70;;;10.38;;
71383;SDS011;61466;52.166;5.004;2022-11-15T07:45:53;20.92;;;11.05;;
71383;SDS011;61466;52.166;5.004;2022-11-15T07:48:19;21.52;;;10.13;;
71383;SDS011;61466;52.166;5.004;2022-11-15T07:50:45;22.77;;;11.38;;
71383;SDS011;61466;52.166;5.004;2022-11-15T07:53:11;22.35;;;10.88;;
71383;SDS011;61466;52.166;5.004;2022-11-15T07:55:36;21.88;;;10.65;;
71383;SDS011;61466;52.166;5.004;2022-11-15T07:58:06;23.13;;;10.13;;
71383;SDS011;61466;52.166;5.004;2022-11-15T08:00:33;22.80;;;10.35;;
71383;SDS011;61466;52.166;5.004;2022-11-15T08:03:04;25.20;;;9.57;;
71383;SDS011;61466;52.166;5.004;2022-11-15T08:05:34;17.13;;;8.15;;
71383;SDS011;61466;52.166;5.004;2022-11-15T08:08:00;23.48;;;9.45;;
71383;SDS011;61466;52.166;5.004;2022-11-15T08:10:27;15.75;;;8.02;;
71383;SDS011;61466;52.166;5.004;2022-11-15T08:12:57;19.15;;;9.18;;
71383;SDS011;61466;52.166;5.004;2022-11-15T08:15:25;17.00;;;8.77;;
71383;SDS011;61466;52.166;5.004;2022-11-15T08:17:58;17.52;;;8.55;;
71383;SDS011;61466;52.166;5.004;2022-11-15T08:20:26;16.13;;;8.02;;
71383;SDS011;61466;52.166;5.004;2022-11-15T08:22:58;16.92;;;8.38;;
71383;SDS011;61466;52.166;5.004;2022-11-15T08:25:25;13.57;;;7.95;;
71383;SDS011;61466;52.166;5.004;2022-11-15T08:27:53;15.20;;;7.30;;
71383;SDS011;61466;52.166;5.004;2022-11-15T08:30:20;14.45;;;7.72;;
71383;SDS011;61466;52.166;5.004;2022-11-15T08:32:46;14.35;;;8.02;;
71383;SDS011;61466;52.166;5.004;2022-11-15T08:35:13;13.48;;;7.20;;
71383;SDS011;61466;52.166;5.004;2022-11-15T08:37:39;13.52;;;6.55;;
71383;SDS011;61466;52.166;5.004;2022-11-15T08:40:05;16.00;;;6.85;;
71383;SDS011;61466;52.166;5.004;2022-11-15T08:42:31;13.95;;;6.68;;
71383;SDS011;61466;52.166;5.004;2022-11-15T08:44:57;11.75;;;6.55;;
71383;SDS011;61466;52.166;5.004;2022-11-15T08:47:23;19.58;;;7.88;;
71383;SDS011;61466;52.166;5.004;2022-11-15T08:49:49;13.80;;;6.85;;
71383;SDS011;61466;52.166;5.004;2022-11-15T08:52:15;11.02;;;6.43;;
71383;SDS011;61466;52.166;5.004;2022-11-15T08:54:41;14.40;;;6.57;;
71383;SDS011;61466;52.166;5.004;2022-11-15T08:57:06;9.45;;;5.55;;
71383;SDS011;61466;52.166;5.004;2022-11-15T08:59:34;11.52;;;6.00;;
71383;SDS011;61466;52.166;5.004;2022-11-15T09:02:00;10.98;;;5.97;;
71383;SDS011;61466;52.166;5.004;2022-11-15T09:04:25;10.90;;;6.15;;
71383;SDS011;61466;52.166;5.004;2022-11-15T09:06:51;10.48;;;5.32;;
71383;SDS011;61466;52.166;5.004;2022-11-15T09:09:16;10.00;;;4.93;;
71383;SDS011;61466;52.166;5.004;2022-11-15T09:11:43;14.32;;;5.03;;
71383;SDS011;61466;52.166;5.004;2022-11-15T09:14:14;13.60;;;6.95;;
71383;SDS011;61466;52.166;5.004;2022-11-15T09:16:39;12.50;;;5.78;;
71383;SDS011;61466;52.166;5.004;2022-11-15T09:19:06;12.05;;;5.55;;
71383;SDS011;61466;52.166;5.004;2022-11-15T09:21:33;12.40;;;5.47;;
71383;SDS011;61466;52.166;5.004;2022-11-15T09:23:58;12.95;;;5.97;;
71383;SDS011;61466;52.166;5.004;2022-11-15T09:26:24;8.02;;;5.53;;
71383;SDS011;61466;52.166;5.004;2022-11-15T09:28:50;8.88;;;5.32;;
71383;SDS011;61466;52.166;5.004;2022-11-15T09:31:16;12.60;;;5.72;;
71383;SDS011;61466;52.166;5.004;2022-11-15T09:33:45;10.25;;;5.88;;
71383;SDS011;61466;52.166;5.004;2022-11-15T09:36:12;8.65;;;5.63;;
71383;SDS011;61466;52.166;5.004;2022-11-15T09:38:38;11.40;;;5.95;;
71383;SDS011;61466;52.166;5.004;2022-11-15T09:49:29;10.18;;;5.30;;
71383;SDS011;61466;52.166;5.004;2022-11-15T09:51:55;13.25;;;5.03;;
71383;SDS011;61466;52.166;5.004;2022-11-15T10:00:34;7.25;;;4.40;;
71383;SDS011;61466;52.166;5.004;2022-11-15T10:11:09;8.07;;;4.72;;
71383;SDS011;61466;52.166;5.004;2022-11-15T10:13:38;11.52;;;5.10;;
71383;SDS011;61466;52.166;5.004;2022-11-15T10:19:21;6.97;;;3.83;;
71383;SDS011;61466;52.166;5.004;2022-11-15T10:22:11;5.90;;;3.83;;
71383;SDS011;61466;52.166;5.004;2022-11-15T10:27:54;6.00;;;4.25;;
71383;SDS011;61466;52.166;5.004;2022-11-15T10:30:22;7.13;;;4.05;;
71383;SDS011;61466;52.166;5.004;2022-11-15T10:32:49;6.88;;;3.33;;
71383;SDS011;61466;52.166;5.004;2022-11-15T10:35:16;9.57;;;4.22;;
71383;SDS011;61466;52.166;5.004;2022-11-15T10:37:48;8.90;;;3.88;;
71383;SDS011;61466;52.166;5.004;2022-11-15T10:40:18;11.88;;;4.22;;
71383;SDS011;61466;52.166;5.004;2022-11-15T10:42:47;8.73;;;4.15;;
71383;SDS011;61466;52.166;5.004;2022-11-15T10:45:30;5.22;;;3.92;;
71383;SDS011;61466;52.166;5.004;2022-11-15T10:50:48;6.38;;;4.15;;
71383;SDS011;61466;52.166;5.004;2022-11-15T10:56:03;5.72;;;3.05;;
71383;SDS011;61466;52.166;5.004;2022-11-15T10:58:34;4.65;;;3.05;;
71383;SDS011;61466;52.166;5.004;2022-11-15T11:01:16;8.70;;;3.90;;
71383;SDS011;61466;52.166;5.004;2022-11-15T11:03:45;6.13;;;3.40;;
71383;SDS011;61466;52.166;5.004;2022-11-15T11:06:27;5.97;;;3.00;;
71383;SDS011;61466;52.166;5.004;2022-11-15T11:08:58;6.47;;;3.08;;
71383;SDS011;61466;52.166;5.004;2022-11-15T11:11:45;7.60;;;2.80;;
71383;SDS011;61466;52.166;5.004;2022-11-15T11:14:25;8.85;;;3.25;;
71383;SDS011;61466;52.166;5.004;2022-11-15T11:19:49;4.55;;;2.45;;
71383;SDS011;61466;52.166;5.004;2022-11-15T11:31:00;3.60;;;1.73;;
71383;SDS011;61466;52.166;5.004;2022-11-15T11:37:01;5.13;;;2.00;;
71383;SDS011;61466;52.166;5.004;2022-11-15T11:50:45;4.00;;;2.28;;
71383;SDS011;61466;52.166;5.004;2022-11-15T11:53:21;2.17;;;1.58;;
71383;SDS011;61466;52.166;5.004;2022-11-15T11:55:50;5.97;;;2.28;;
71383;SDS011;61466;52.166;5.004;2022-11-15T11:58:37;3.28;;;1.40;;
71383;SDS011;61466;52.166;5.004;2022-11-15T12:01:12;3.17;;;1.92;;
71383;SDS011;61466;52.166;5.004;2022-11-15T12:08:53;2.30;;;1.90;;
71383;SDS011;61466;52.166;5.004;2022-11-15T12:11:28;4.53;;;2.20;;
71383;SDS011;61466;52.166;5.004;2022-11-15T12:14:03;6.95;;;2.00;;
71383;SDS011;61466;52.166;5.004;2022-11-15T12:16:34;5.05;;;1.60;;
71383;SDS011;61466;52.166;5.004;2022-11-15T12:19:00;4.13;;;2.00;;
71383;SDS011;61466;52.166;5.004;2022-11-15T12:21:46;3.28;;;1.67;;
71383;SDS011;61466;52.166;5.004;2022-11-15T12:24:33;3.72;;;1.80;;
71383;SDS011;61466;52.166;5.004;2022-11-15T12:27:05;3.25;;;1.77;;
71383;SDS011;61466;52.166;5.004;2022-11-15T12:29:50;8.48;;;2.15;;
71383;SDS011;61466;52.166;5.004;2022-11-15T12:38:02;3.28;;;1.42;;
71383;SDS011;61466;52.166;5.004;2022-11-15T12:40:33;3.70;;;1.30;;
71383;SDS011;61466;52.166;5.004;2022-11-15T12:46:11;4.65;;;1.63;;
71383;SDS011;61466;52.166;5.004;2022-11-15T12:51:14;5.80;;;1.30;;
71383;SDS011;61466;52.166;5.004;2022-11-15T12:53:40;1.88;;;1.23;;
71383;SDS011;61466;52.166;5.004;2022-11-15T12:58:48;2.58;;;1.45;;
71383;SDS011;61466;52.166;5.004;2022-11-15T13:12:01;3.35;;;1.30;;
71383;SDS011;61466;52.166;5.004;2022-11-15T13:17:02;3.15;;;1.23;;
71383;SDS011;61466;52.166;5.004;2022-11-15T13:19:35;4.57;;;1.48;;
71383;SDS011;61466;52.166;5.004;2022-11-15T13:22:04;3.05;;;0.98;;
71383;SDS011;61466;52.166;5.004;2022-11-15T13:24:53;3.17;;;1.50;;
71383;SDS011;61466;52.166;5.004;2022-11-15T13:27:20;3.47;;;1.52;;
71383;SDS011;61466;52.166;5.004;2022-11-15T13:29:46;4.90;;;1.42;;
71383;SDS011;61466;52.166;5.004;2022-11-15T13:32:14;4.22;;;1.42;;
71383;SDS011;61466;52.166;5.004;2022-11-15T13:34:45;3.90;;;1.55;;
71383;SDS011;61466;52.166;5.004;2022-11-15T13:39:47;1.85;;;1.20;;
71383;SDS011;61466;52.166;5.004;2022-11-15T13:42:19;1.80;;;1.38;;
71383;SDS011;61466;52.166;5.004;2022-11-15T13:45:02;4.63;;;1.20;;
71383;SDS011;61466;52.166;5.004;2022-11-15T13:47:29;3.60;;;1.55;;
71383;SDS011;61466;52.166;5.004;2022-11-15T13:49:58;3.67;;;1.50;;
71383;SDS011;61466;52.166;5.004;2022-11-15T13:52:27;3.97;;;1.52;;
71383;SDS011;61466;52.166;5.004;2022-11-15T13:55:04;4.60;;;1.40;;
71383;SDS011;61466;52.166;5.004;2022-11-15T13:57:45;5.03;;;1.77;;
71383;SDS011;61466;52.166;5.004;2022-11-15T14:03:04;3.83;;;1.58;;
71383;SDS011;61466;52.166;5.004;2022-11-15T14:05:33;3.13;;;1.58;;
71383;SDS011;61466;52.166;5.004;2022-11-15T14:07:59;4.60;;;1.80;;
71383;SDS011;61466;52.166;5.004;2022-11-15T14:13:01;4.03;;;1.75;;
71383;SDS011;61466;52.166;5.004;2022-11-15T14:17:57;5.18;;;1.70;;
71383;SDS011;61466;52.166;5.004;2022-11-15T14:22:55;4.00;;;1.92;;
71383;SDS011;61466;52.166;5.004;2022-11-15T14:25:23;4.72;;;1.83;;
71383;SDS011;61466;52.166;5.004;2022-11-15T14:30:41;3.92;;;1.70;;
71383;SDS011;61466;52.166;5.004;2022-11-15T14:33:17;4.05;;;1.70;;
71383;SDS011;61466;52.166;5.004;2022-11-15T14:35:43;3.50;;;1.75;;
71383;SDS011;61466;52.166;5.004;2022-11-15T14:38:10;5.10;;;1.90;;
71383;SDS011;61466;52.166;5.004;2022-11-15T14:40:35;4.03;;;2.10;;
71383;SDS011;61466;52.166;5.004;2022-11-15T14:43:01;2.80;;;1.80;;
71383;SDS011;61466;52.166;5.004;2022-11-15T14:45:27;2.63;;;1.60;;
71383;SDS011;61466;52.166;5.004;2022-11-15T14:47:53;2.72;;;1.83;;
71383;SDS011;61466;52.166;5.004;2022-11-15T14:50:19;4.93;;;1.73;;
71383;SDS011;61466;52.166;5.004;2022-11-15T14:52:46;2.45;;;1.90;;
71383;SDS011;61466;52.166;5.004;2022-11-15T14:55:15;3.45;;;1.80;;
71383;SDS011;61466;52.166;5.004;2022-11-15T14:57:45;4.63;;;1.70;;
71383;SDS011;61466;52.166;5.004;2022-11-15T15:00:10;2.63;;;1.60;;
71383;SDS011;61466;52.166;5.004;2022-11-15T15:02:37;7.63;;;1.67;;
71383;SDS011;61466;52.166;5.004;2022-11-15T15:05:11;2.60;;;1.70;;
71383;SDS011;61466;52.166;5.004;2022-11-15T15:07:39;4.05;;;1.88;;
71383;SDS011;61466;52.166;5.004;2022-11-15T15:10:05;5.55;;;2.10;;
71383;SDS011;61466;52.166;5.004;2022-11-15T15:12:30;4.50;;;1.67;;
71383;SDS011;61466;52.166;5.004;2022-11-15T15:14:56;2.38;;;1.65;;
71383;SDS011;61466;52.166;5.004;2022-11-15T15:17:21;2.65;;;1.90;;
71383;SDS011;61466;52.166;5.004;2022-11-15T15:19:46;2.17;;;1.58;;
71383;SDS011;61466;52.166;5.004;2022-11-15T15:22:16;4.28;;;1.70;;
71383;SDS011;61466;52.166;5.004;2022-11-15T15:24:44;3.63;;;1.77;;
71383;SDS011;61466;52.166;5.004;2022-11-15T15:27:11;2.70;;;1.60;;
71383;SDS011;61466;52.166;5.004;2022-11-15T15:29:37;5.88;;;1.67;;
71383;SDS011;61466;52.166;5.004;2022-11-15T15:32:03;3.17;;;1.40;;
71383;SDS011;61466;52.166;5.004;2022-11-15T15:34:29;2.45;;;1.10;;
71383;SDS011;61466;52.166;5.004;2022-11-15T15:39:52;5.55;;;1.77;;
71383;SDS011;61466;52.166;5.004;2022-11-15T15:42:19;4.68;;;1.55;;
71383;SDS011;61466;52.166;5.004;2022-11-15T15:44:46;4.43;;;1.95;;
71383;SDS011;61466;52.166;5.004;2022-11-15T15:47:13;4.05;;;2.20;;
71383;SDS011;61466;52.166;5.004;2022-11-15T15:49:40;3.88;;;1.88;;
71383;SDS011;61466;52.166;5.004;2022-11-15T15:52:05;4.10;;;1.95;;
71383;SDS011;61466;52.166;5.004;2022-11-15T15:54:31;2.30;;;1.60;;
71383;SDS011;61466;52.166;5.004;2022-11-15T15:56:56;2.45;;;1.58;;
71383;SDS011;61466;52.166;5.004;2022-11-15T15:59:21;2.25;;;1.48;;
71383;SDS011;61466;52.166;5.004;2022-11-15T16:01:47;2.45;;;1.80;;
71383;SDS011;61466;52.166;5.004;2022-11-15T16:04:12;3.60;;;1.58;;
71383;SDS011;61466;52.166;5.004;2022-11-15T16:06:38;5.90;;;1.90;;
71383;SDS011;61466;52.166;5.004;2022-11-15T16:09:08;4.07;;;1.85;;
71383;SDS011;61466;52.166;5.004;2022-11-15T16:11:37;4.40;;;1.92;;
71383;SDS011;61466;52.166;5.004;2022-11-15T16:14:03;2.95;;;1.85;;
71383;SDS011;61466;52.166;5.004;2022-11-15T16:16:28;3.13;;;1.40;;
71383;SDS011;61466;52.166;5.004;2022-11-15T16:18:53;3.15;;;1.73;;
71383;SDS011;61466;52.166;5.004;2022-11-15T16:21:19;3.03;;;1.63;;
71383;SDS011;61466;52.166;5.004;2022-11-15T16:23:44;3.13;;;1.67;;
71383;SDS011;61466;52.166;5.004;2022-11-15T16:26:21;3.38;;;1.35;;
71383;SDS011;61466;52.166;5.004;2022-11-15T16:28:49;3.95;;;1.83;;
71383;SDS011;61466;52.166;5.004;2022-11-15T16:31:15;2.90;;;1.50;;
71383;SDS011;61466;52.166;5.004;2022-11-15T16:33:43;3.15;;;1.90;;
71383;SDS011;61466;52.166;5.004;2022-11-15T16:36:22;3.33;;;1.42;;
71383;SDS011;61466;52.166;5.004;2022-11-15T16:38:49;4.53;;;1.75;;
71383;SDS011;61466;52.166;5.004;2022-11-15T16:41:15;2.05;;;1.25;;
71383;SDS011;61466;52.166;5.004;2022-11-15T16:43:43;4.40;;;1.55;;
71383;SDS011;61466;52.166;5.004;2022-11-15T16:46:17;7.25;;;1.90;;
71383;SDS011;61466;52.166;5.004;2022-11-15T16:48:45;3.60;;;1.70;;
71383;SDS011;61466;52.166;5.004;2022-11-15T16:51:11;2.53;;;1.48;;
71383;SDS011;61466;52.166;5.004;2022-11-15T16:53:37;4.82;;;1.73;;
71383;SDS011;61466;52.166;5.004;2022-11-15T16:56:03;4.40;;;1.70;;
71383;SDS011;61466;52.166;5.004;2022-11-15T16:58:34;3.33;;;1.50;;
71383;SDS011;61466;52.166;5.004;2022-11-15T17:01:02;5.07;;;1.67;;
71383;SDS011;61466;52.166;5.004;2022-11-15T17:03:28;4.05;;;1.80;;
71383;SDS011;61466;52.166;5.004;2022-11-15T17:05:59;3.58;;;1.60;;
71383;SDS011;61466;52.166;5.004;2022-11-15T17:08:24;5.97;;;2.08;;
71383;SDS011;61466;52.166;5.004;2022-11-15T17:10:49;4.05;;;1.80;;